Time;durP1;ratioP1;P1;durP2;ratioP2;P2;SDS_P1;SDS_P2;PMS_P1;PMS_P2;Temp;Humidity;BMP_temperature;BMP_pressure;BME280_temperature;BME280_humidity;BME280_pressure;Samples;Min_cycle;Max_cycle;Signal;HPM_P1;HPM_P2
2022/03/22 00:01:06;;;;;;;76.43;35.63;;;;;;;10.37;95.14;103005.78;5011144;28;20029;-55
2022/03/22 00:03:32;;;;;;;70.82;33.70;;;;;;;10.35;94.72;103008.56;5012544;28;20536;-55
2022/03/22 00:05:57;;;;;;;68.13;33.97;;;;;;;10.34;95.26;103004.19;5004534;28;20037;-55
2022/03/22 00:08:22;;;;;;;66.63;31.73;;;;;;;10.30;95.83;103007.97;4997434;28;20033;-54
2022/03/22 00:10:48;;;;;;;63.55;32.03;;;;;;;10.25;94.73;103011.00;4996306;28;20045;-55
2022/03/22 00:13:13;;;;;;;63.40;31.70;;;;;;;10.24;96.22;103009.25;4993573;28;20026;-54
2022/03/22 00:15:38;;;;;;;66.80;32.10;;;;;;;10.20;95.79;103007.78;5001023;28;20121;-54
2022/03/22 00:18:04;;;;;;;68.20;32.65;;;;;;;10.18;95.80;103009.72;5004887;28;20353;-54
2022/03/22 00:20:30;;;;;;;70.00;32.70;;;;;;;10.11;95.87;103004.88;5004353;28;20056;-54
2022/03/22 00:22:55;;;;;;;75.03;32.72;;;;;;;10.06;95.57;103011.41;5012167;28;20093;-55
2022/03/22 00:25:24;;;;;;;73.88;32.33;;;;;;;10.01;96.71;103002.84;5001125;28;20372;-55
2022/03/22 00:27:53;;;;;;;76.60;33.92;;;;;;;10.00;96.21;103011.81;5010875;28;20041;-55
2022/03/22 00:30:19;;;;;;;64.70;30.92;;;;;;;9.98;97.36;103010.19;5002285;28;20025;-55
2022/03/22 00:32:46;;;;;;;66.28;30.63;;;;;;;9.91;97.74;103012.41;5003942;28;20132;-55
2022/03/22 00:35:11;;;;;;;72.18;30.70;;;;;;;9.91;97.55;103015.06;4999431;28;20408;-55
2022/03/22 00:37:42;;;;;;;61.17;30.65;;;;;;;9.88;97.59;103010.81;5007761;28;20029;-55
2022/03/22 00:40:17;;;;;;;62.72;30.90;;;;;;;9.84;98.02;103017.34;4996601;28;20064;-55
2022/03/22 00:42:46;;;;;;;67.07;31.17;;;;;;;9.78;98.78;103020.41;5010891;28;20031;-55
2022/03/22 00:45:13;;;;;;;63.53;31.02;;;;;;;9.74;99.16;103016.22;5003839;28;20869;-55
2022/03/22 00:47:38;;;;;;;58.40;31.15;;;;;;;9.67;98.36;103012.25;5011421;28;20025;-55
2022/03/22 00:50:04;;;;;;;58.85;32.13;;;;;;;9.64;98.76;103028.44;5014802;28;20083;-54
2022/03/22 00:52:29;;;;;;;63.88;32.08;;;;;;;9.60;99.63;103017.13;5012623;28;20037;-55
2022/03/22 00:54:54;;;;;;;59.10;31.65;;;;;;;9.53;99.46;103022.00;5006912;28;20235;-54
2022/03/22 00:57:20;;;;;;;66.70;32.50;;;;;;;9.47;99.64;103011.75;5013924;28;20197;-54
2022/03/22 01:00:05;;;;;;;65.70;32.75;;;;;;;9.47;100.00;103018.88;5004301;28;20032;-54
2022/03/22 01:02:42;;;;;;;62.97;31.58;;;;;;;9.42;100.00;103018.31;4995713;28;20539;-55
2022/03/22 01:05:11;;;;;;;66.85;32.47;;;;;;;9.37;100.00;103015.97;4993984;28;20508;-55
2022/03/22 01:07:40;;;;;;;59.28;31.40;;;;;;;9.33;100.00;103017.13;4995819;28;20037;-55
2022/03/22 01:10:07;;;;;;;74.32;32.05;;;;;;;9.28;100.00;103014.78;4999565;28;20045;-55
2022/03/22 01:12:34;;;;;;;65.45;31.17;;;;;;;9.26;100.00;103022.00;5015824;28;20045;-55
2022/03/22 01:15:00;;;;;;;66.97;32.20;;;;;;;9.24;100.00;103025.72;5014783;28;20061;-55
2022/03/22 01:17:25;;;;;;;62.13;32.58;;;;;;;9.19;100.00;103018.00;5010277;28;20068;-55
2022/03/22 01:19:50;;;;;;;61.42;32.10;;;;;;;9.17;100.00;103016.41;5014162;28;20441;-54
2022/03/22 01:22:16;;;;;;;65.03;31.83;;;;;;;9.15;100.00;103016.50;5010710;28;20021;-56
2022/03/22 01:24:42;;;;;;;70.10;31.75;;;;;;;9.12;100.00;103011.38;4998275;28;20257;-55
2022/03/22 01:27:08;;;;;;;63.40;32.28;;;;;;;9.09;100.00;103019.56;5004472;28;20187;-56
2022/03/22 01:29:33;;;;;;;61.95;31.52;;;;;;;9.03;100.00;103018.16;4995616;28;20037;-56
2022/03/22 01:31:59;;;;;;;61.85;32.00;;;;;;;9.01;100.00;103017.38;5007841;28;20084;-55
2022/03/22 01:34:25;;;;;;;67.30;32.88;;;;;;;8.96;100.00;103027.47;5007491;28;20412;-55
2022/03/22 01:36:50;;;;;;;65.90;31.73;;;;;;;8.93;100.00;103020.53;4998383;28;20053;-55
2022/03/22 01:39:15;;;;;;;64.47;31.85;;;;;;;8.90;100.00;103017.22;5003641;28;20030;-55
2022/03/22 01:41:41;;;;;;;63.90;31.00;;;;;;;8.88;100.00;103025.28;5012600;28;20071;-55
2022/03/22 01:44:06;;;;;;;66.55;31.63;;;;;;;8.87;100.00;103022.72;5010500;28;20034;-56
2022/03/22 01:46:35;;;;;;;67.95;32.00;;;;;;;8.82;100.00;103022.16;5015216;28;20573;-56
2022/03/22 01:49:00;;;;;;;66.75;31.45;;;;;;;8.80;100.00;103021.41;5015439;28;20461;-56
2022/03/22 01:51:26;;;;;;;69.60;31.80;;;;;;;8.77;100.00;103025.09;5014226;28;20312;-56
2022/03/22 01:53:51;;;;;;;63.58;31.08;;;;;;;8.74;100.00;103019.97;5014933;28;20098;-55
2022/03/22 01:56:17;;;;;;;59.28;32.00;;;;;;;8.70;100.00;103021.97;5014557;28;20129;-55
2022/03/22 01:58:42;;;;;;;66.78;32.55;;;;;;;8.66;100.00;103015.13;5014964;28;20025;-55
2022/03/22 02:06:39;;;;;;;57.53;30.83;;;;;;;8.58;100.00;103012.91;5001378;28;20048;-56
2022/03/22 02:09:05;;;;;;;64.32;31.23;;;;;;;8.56;100.00;103014.81;4998790;28;20022;-55
2022/03/22 02:11:31;;;;;;;65.88;30.95;;;;;;;8.54;100.00;103013.22;5008529;28;20044;-55
2022/03/22 02:13:56;;;;;;;68.70;33.00;;;;;;;8.52;100.00;103015.97;5009642;28;20244;-54
2022/03/22 02:16:22;;;;;;;60.40;31.67;;;;;;;8.50;100.00;103006.34;5014755;28;20025;-55
2022/03/22 02:18:50;;;;;;;58.10;30.05;;;;;;;8.45;100.00;103014.63;5008742;28;20033;-55
2022/03/22 02:21:16;;;;;;;67.63;31.08;;;;;;;8.43;100.00;103013.84;4999849;28;20021;-55
2022/03/22 02:23:49;;;;;;;55.67;29.58;;;;;;;8.37;100.00;103007.09;5014519;28;20025;-54
2022/03/22 02:26:14;;;;;;;55.22;28.98;;;;;;;8.35;100.00;103008.09;5005761;28;20049;-55
2022/03/22 02:28:42;;;;;;;56.90;29.30;;;;;;;8.30;100.00;103007.53;5001799;28;20032;-55
2022/03/22 02:31:07;;;;;;;59.40;28.65;;;;;;;8.31;100.00;103011.91;5005381;28;20088;-55
2022/03/22 02:33:33;;;;;;;56.67;29.13;;;;;;;8.31;100.00;103011.91;5014298;28;20021;-55
2022/03/22 02:35:58;;;;;;;55.97;28.63;;;;;;;8.27;100.00;103007.75;5013372;28;20041;-56
2022/03/22 02:38:23;;;;;;;54.75;28.10;;;;;;;8.27;100.00;103007.75;5012396;28;20068;-55
2022/03/22 02:40:48;;;;;;;58.08;28.23;;;;;;;8.26;100.00;103014.00;5010025;28;20128;-55
2022/03/22 02:43:14;;;;;;;62.03;27.60;;;;;;;8.24;100.00;103006.09;5011573;28;20025;-55
2022/03/22 02:45:39;;;;;;;58.25;27.00;;;;;;;8.21;100.00;103009.81;5011611;28;20058;-55
2022/03/22 02:48:05;;;;;;;54.60;28.02;;;;;;;8.16;100.00;103006.59;5006209;28;20409;-55
2022/03/22 02:50:30;;;;;;;51.15;27.70;;;;;;;8.15;100.00;103004.00;4993223;28;20022;-54
2022/03/22 02:52:55;;;;;;;56.10;27.38;;;;;;;8.12;100.00;103010.34;5008280;28;20060;-55
2022/03/22 02:55:21;;;;;;;62.63;28.17;;;;;;;8.09;100.00;103010.53;5012479;28;20329;-55
2022/03/22 02:57:47;;;;;;;59.15;27.73;;;;;;;8.07;100.00;103014.25;5002884;28;20221;-54
2022/03/22 03:00:13;;;;;;;50.28;26.90;;;;;;;8.05;100.00;103009.03;5012338;28;20128;-55
2022/03/22 03:02:50;;;;;;;55.13;27.33;;;;;;;8.02;100.00;103006.53;5004918;28;20324;-55
2022/03/22 03:05:16;;;;;;;61.40;26.98;;;;;;;8.00;100.00;103016.41;4991057;28;20049;-55
2022/03/22 03:07:42;;;;;;;50.63;26.92;;;;;;;7.97;100.00;103013.94;5003202;28;20565;-55
2022/03/22 03:10:08;;;;;;;49.20;26.08;;;;;;;7.94;100.00;103008.78;4999084;28;20313;-56
2022/03/22 03:12:34;;;;;;;51.25;25.30;;;;;;;7.92;100.00;103006.22;5014094;28;20079;-56
2022/03/22 03:15:00;;;;;;;52.20;26.08;;;;;;;7.87;100.00;103010.09;5013233;28;20496;-56
2022/03/22 03:17:25;;;;;;;57.80;26.48;;;;;;;7.84;100.00;103011.13;5014263;28;20500;-55
2022/03/22 03:19:50;;;;;;;49.15;25.55;;;;;;;7.80;100.00;103010.44;5012155;28;20124;-55
2022/03/22 03:22:16;;;;;;;54.60;26.23;;;;;;;7.78;100.00;103012.34;5007895;28;20021;-56
2022/03/22 03:24:41;;;;;;;48.97;26.77;;;;;;;7.76;100.00;103016.06;5012792;28;20396;-55
2022/03/22 03:27:06;;;;;;;51.17;26.25;;;;;;;7.75;100.00;103006.34;5005895;28;20036;-55
2022/03/22 03:29:32;;;;;;;53.83;26.58;;;;;;;7.74;100.00;103010.81;5012146;28;20025;-55
2022/03/22 03:31:57;;;;;;;52.50;26.55;;;;;;;7.70;100.00;103011.94;5013880;28;20499;-55
2022/03/22 03:34:22;;;;;;;49.72;25.92;;;;;;;7.69;100.00;103010.25;5012693;28;20033;-54
2022/03/22 03:36:48;;;;;;;48.58;25.75;;;;;;;7.66;100.00;103016.56;5012110;28;20069;-55
2022/03/22 03:39:14;;;;;;;51.83;25.77;;;;;;;7.65;100.00;103021.97;5012639;28;20322;-54
2022/03/22 03:41:56;;;;;;;53.78;25.63;;;;;;;7.62;100.00;103017.72;5006396;28;20025;-55
2022/03/22 03:47:16;;;;;;;54.55;25.58;;;;;;;7.56;100.00;103017.19;5004621;28;20204;-55
2022/03/22 03:49:47;;;;;;;51.42;25.77;;;;;;;7.53;100.00;103039.50;5017942;28;20028;-55
2022/03/22 03:52:15;;;;;;;51.70;25.88;;;;;;;7.51;100.00;103035.22;5005364;28;20461;-55
2022/03/22 03:54:41;;;;;;;51.28;25.77;;;;;;;7.46;100.00;103031.00;5012089;28;20025;-54
2022/03/22 03:57:07;;;;;;;55.75;25.40;;;;;;;7.44;100.00;103038.22;5012444;28;20025;-52
2022/03/22 03:59:34;;;;;;;49.22;25.45;;;;;;;7.43;100.00;103032.97;5011630;28;20198;-55
2022/03/22 04:02:01;;;;;;;54.47;25.58;;;;;;;7.42;100.00;103039.25;5012789;28;20040;-54
2022/03/22 04:04:26;;;;;;;47.80;24.80;;;;;;;7.39;100.00;103037.63;5004099;28;20018;-54
2022/03/22 04:06:52;;;;;;;49.35;25.50;;;;;;;7.35;100.00;103046.72;5010515;28;20029;-55
2022/03/22 04:09:17;;;;;;;50.28;25.83;;;;;;;7.34;100.00;103038.84;5002333;28;20258;-55
2022/03/22 04:11:43;;;;;;;48.83;24.52;;;;;;;7.30;100.00;103051.44;5009594;28;20210;-54
2022/03/22 04:14:11;;;;;;;57.25;25.35;;;;;;;7.26;100.00;103042.78;5012224;28;20033;-55
2022/03/22 04:16:36;;;;;;;54.63;26.00;;;;;;;7.29;100.00;103047.06;5012543;28;20029;-55
2022/03/22 04:19:03;;;;;;;48.20;25.50;;;;;;;7.24;100.00;103055.28;5012761;28;20018;-55
2022/03/22 04:21:28;;;;;;;49.63;25.73;;;;;;;7.20;100.00;103048.41;5011176;28;20369;-54
2022/03/22 04:23:53;;;;;;;48.70;25.77;;;;;;;7.20;100.00;103052.88;5012311;28;20107;-54
2022/03/22 04:26:19;;;;;;;51.80;25.38;;;;;;;7.18;100.00;103049.44;5009746;28;20028;-54
2022/03/22 04:34:12;;;;;;;52.78;24.73;;;;;;;7.09;100.00;103048.16;5004454;28;20197;-54
2022/03/22 04:36:37;;;;;;;53.03;25.27;;;;;;;7.08;100.00;103051.75;5011635;28;20492;-54
2022/03/22 04:39:02;;;;;;;49.47;24.70;;;;;;;7.06;100.00;103049.19;5009999;28;20029;-55
2022/03/22 04:41:28;;;;;;;50.13;24.48;;;;;;;7.06;100.00;103051.84;5011519;28;20535;-55
2022/03/22 04:43:53;;;;;;;51.13;24.65;;;;;;;7.02;100.00;103052.94;5013537;28;20091;-54
2022/03/22 04:46:19;;;;;;;50.53;24.88;;;;;;;7.01;100.00;103048.56;5009883;28;20494;-55
2022/03/22 04:48:47;;;;;;;46.88;24.40;;;;;;;6.97;100.00;103047.00;5007184;28;20047;-54
2022/03/22 04:56:48;;;;;;;48.00;24.13;;;;;;;6.86;100.00;103039.63;4992115;28;20120;-54
2022/03/22 04:59:15;;;;;;;49.83;24.35;;;;;;;6.85;100.00;103050.34;5011845;28;20033;-55
2022/03/22 05:01:45;;;;;;;50.08;26.55;;;;;;;6.83;100.00;103053.06;5012178;28;20473;-55
2022/03/22 05:04:10;;;;;;;52.47;25.35;;;;;;;6.80;100.00;103052.38;5010167;28;20457;-55
2022/03/22 05:06:38;;;;;;;48.20;25.13;;;;;;;6.77;100.00;103056.06;5009776;28;20029;-55
2022/03/22 05:09:04;;;;;;;52.85;26.33;;;;;;;6.71;100.00;103054.59;5010721;28;20041;-55
2022/03/22 05:11:30;;;;;;;51.10;25.08;;;;;;;6.73;100.00;103060.66;5024645;28;20498;-55
2022/03/22 05:13:56;;;;;;;51.00;25.48;;;;;;;6.71;100.00;103065.19;5006071;28;20025;-55
2022/03/22 05:16:22;;;;;;;48.30;24.48;;;;;;;6.72;100.00;103063.41;5011737;28;20441;-54
2022/03/22 05:18:48;;;;;;;52.22;24.77;;;;;;;6.69;100.00;103064.44;5011975;28;20029;-55
2022/03/22 05:21:13;;;;;;;52.10;24.58;;;;;;;6.67;100.00;103070.75;5014376;28;20318;-55
2022/03/22 05:23:39;;;;;;;49.30;24.77;;;;;;;6.67;100.00;103068.97;5013663;28;20033;-55
2022/03/22 05:26:04;;;;;;;46.70;25.08;;;;;;;6.64;100.00;103073.59;5014388;28;20532;-54
2022/03/22 05:28:30;;;;;;;62.38;25.98;;;;;;;6.65;100.00;103078.81;5008100;28;20125;-55
2022/03/22 05:30:56;;;;;;;45.72;25.35;;;;;;;6.65;100.00;103077.94;5004355;28;20119;-55
2022/03/22 05:33:22;;;;;;;46.65;24.63;;;;;;;6.64;100.00;103081.56;5012844;28;20108;-55
2022/03/22 05:35:47;;;;;;;54.55;25.40;;;;;;;6.65;100.00;103076.16;5013858;28;20060;-55
2022/03/22 05:38:12;;;;;;;46.03;25.17;;;;;;;6.65;100.00;103081.47;5015104;28;20034;-54
2022/03/22 05:40:39;;;;;;;49.50;25.63;;;;;;;6.67;100.00;103090.22;5014072;28;20116;-55
2022/03/22 05:43:05;;;;;;;61.42;25.17;;;;;;;6.67;100.00;103090.22;5013524;28;20091;-55
2022/03/22 05:45:31;;;;;;;44.30;24.13;;;;;;;6.71;100.00;103089.09;5014143;28;20021;-55
2022/03/22 05:47:58;;;;;;;48.25;24.92;;;;;;;6.72;100.00;103090.84;5008257;28;20198;-55
2022/03/22 05:50:23;;;;;;;56.00;24.52;;;;;;;6.77;100.00;103087.06;5009207;28;20436;-56
2022/03/22 05:52:49;;;;;;;48.72;26.17;;;;;;;6.77;100.00;103092.38;5011455;28;20477;-54
2022/03/22 05:55:15;;;;;;;51.75;24.75;;;;;;;6.78;100.00;103089.66;5014078;28;20517;-55
2022/03/22 05:57:40;;;;;;;53.42;24.92;;;;;;;6.80;100.00;103093.06;5015303;28;20032;-55
2022/03/22 06:00:08;;;;;;;52.75;26.17;;;;;;;6.80;100.00;103094.88;5014222;28;20108;-54
2022/03/22 06:02:37;;;;;;;59.65;25.27;;;;;;;6.80;100.00;103086.91;5013104;28;20045;-55
2022/03/22 06:05:08;;;;;;;56.53;25.92;;;;;;;6.79;100.00;103096.69;5013933;28;20441;-55
2022/03/22 06:07:37;;;;;;;50.80;25.08;;;;;;;6.82;100.00;103095.66;5012597;28;20108;-54
2022/03/22 06:10:04;;;;;;;58.92;25.88;;;;;;;6.79;100.00;103090.50;5002505;28;20022;-53
2022/03/22 06:12:41;;;;;;;57.17;26.35;;;;;;;6.81;100.00;103093.94;4998563;28;20090;-54
2022/03/22 06:15:15;;;;;;;49.90;24.95;;;;;;;6.83;100.00;103103.53;5006677;28;20198;-54
2022/03/22 06:17:52;;;;;;;53.13;25.15;;;;;;;6.85;100.00;103099.00;5014867;28;20029;-54
2022/03/22 06:20:20;;;;;;;58.75;25.50;;;;;;;6.90;100.00;103104.06;5013552;28;20060;-55
2022/03/22 06:22:46;;;;;;;59.63;26.73;;;;;;;6.88;100.00;103105.97;5007452;28;20072;-52
2022/03/22 06:25:17;;;;;;;60.63;25.90;;;;;;;6.93;100.00;103114.53;4993965;28;20048;-55
2022/03/22 06:27:45;;;;;;;53.25;26.73;;;;;;;6.96;100.00;103109.06;4994829;28;20137;-54
2022/03/22 06:30:13;;;;;;;60.92;26.92;;;;;;;6.99;100.00;103105.38;4996805;28;20136;-53
2022/03/22 06:32:59;;;;;;;49.55;26.30;;;;;;;7.05;100.00;103111.22;5000842;28;20480;-54
2022/03/22 06:35:27;;;;;;;52.40;25.08;;;;;;;7.10;100.00;103113.66;5006943;28;20243;-54
2022/03/22 06:37:54;;;;;;;52.03;25.58;;;;;;;7.14;100.00;103109.03;5007732;28;20056;-55
2022/03/22 06:40:21;;;;;;;54.70;26.42;;;;;;;7.19;100.00;103112.28;5012870;28;20053;-55
2022/03/22 06:42:47;;;;;;;51.28;27.60;;;;;;;7.26;100.00;103118.97;5012826;28;20025;-55
2022/03/22 06:45:13;;;;;;;62.47;25.83;;;;;;;7.31;100.00;103124.91;5005876;28;20549;-55
2022/03/22 06:47:39;;;;;;;67.68;26.90;;;;;;;7.38;100.00;103117.44;4999468;28;20013;-54
2022/03/22 06:50:06;;;;;;;77.05;27.55;;;;;;;7.43;100.00;103121.59;5002036;28;20474;-55
2022/03/22 06:52:32;;;;;;;60.58;25.98;;;;;;;7.51;100.00;103117.66;4999008;28;20498;-55
2022/03/22 06:54:58;;;;;;;52.95;26.55;;;;;;;7.58;100.00;103121.69;5012397;28;20052;-55
2022/03/22 06:57:23;;;;;;;47.47;25.30;;;;;;;7.62;100.00;103118.78;5003881;28;20396;-55
2022/03/22 06:59:48;;;;;;;56.42;27.00;;;;;;;7.70;100.00;103126.31;4995068;28;20026;-55
2022/03/22 07:02:14;;;;;;;61.42;26.45;;;;;;;7.77;100.00;103119.72;4994394;28;20349;-55
2022/03/22 07:04:40;;;;;;;50.33;25.98;;;;;;;7.85;100.00;103133.41;4992018;28;20069;-55
2022/03/22 07:07:06;;;;;;;50.70;26.65;;;;;;;7.93;100.00;103124.16;5006020;28;20665;-55
2022/03/22 07:09:31;;;;;;;56.38;25.48;;;;;;;8.03;100.00;103125.34;5007598;28;20764;-55
2022/03/22 07:11:58;;;;;;;51.17;25.42;;;;;;;8.11;100.00;103128.44;5002293;28;20188;-54
2022/03/22 07:14:25;;;;;;;48.10;25.95;;;;;;;8.21;100.00;103137.59;4995204;28;20030;-55
2022/03/22 07:16:51;;;;;;;58.92;25.83;;;;;;;8.29;100.00;103134.47;4998221;28;20547;-55
2022/03/22 07:19:18;;;;;;;54.75;26.48;;;;;;;8.39;100.00;103137.47;4995255;28;20070;-55
2022/03/22 07:21:45;;;;;;;56.33;26.20;;;;;;;8.48;99.32;103136.94;4994716;28;20667;-54
2022/03/22 07:24:12;;;;;;;49.72;26.13;;;;;;;8.56;99.95;103141.81;4993533;28;20025;-56
2022/03/22 07:26:38;;;;;;;52.83;26.08;;;;;;;8.64;98.33;103142.22;5007047;28;20535;-56
2022/03/22 07:29:04;;;;;;;52.65;25.35;;;;;;;8.73;97.72;103149.66;4993370;28;20681;-54
2022/03/22 07:31:29;;;;;;;55.28;26.15;;;;;;;8.83;96.62;103147.31;4996853;28;20117;-54
2022/03/22 07:33:56;;;;;;;47.97;26.17;;;;;;;8.89;97.48;103143.41;5011166;28;20070;-55
2022/03/22 07:36:21;;;;;;;62.03;26.55;;;;;;;8.98;97.45;103148.19;4994627;28;20101;-55
2022/03/22 07:38:47;;;;;;;56.10;26.63;;;;;;;8.99;96.52;103139.22;4994243;28;20534;-55
2022/03/22 07:41:12;;;;;;;52.80;25.88;;;;;;;9.11;95.81;103142.94;5007878;28;20732;-56
2022/03/22 07:43:38;;;;;;;55.47;27.17;;;;;;;9.20;94.63;103152.16;5012326;28;20087;-56
2022/03/22 07:46:04;;;;;;;52.15;25.63;;;;;;;9.30;94.48;103148.84;5011463;28;20127;-55
2022/03/22 07:48:29;;;;;;;54.90;26.42;;;;;;;9.42;93.66;103143.69;4999926;28;20868;-55
2022/03/22 07:53:42;;;;;;;46.50;25.05;;;;;;;9.63;92.18;103147.66;5001130;28;20122;-56
2022/03/22 07:56:07;;;;;;;51.15;26.10;;;;;;;9.76;92.74;103145.06;5012616;28;20113;-56
2022/03/22 07:58:33;;;;;;;54.53;26.63;;;;;;;9.87;92.49;103152.38;5012159;28;20022;-56
2022/03/22 08:00:58;;;;;;;58.78;26.55;;;;;;;9.99;92.36;103159.56;4998963;28;20018;-56
2022/03/22 08:03:23;;;;;;;55.13;26.83;;;;;;;10.13;90.68;103164.00;5014037;28;20465;-56
2022/03/22 08:05:49;;;;;;;51.58;26.95;;;;;;;10.24;89.71;103160.66;5005197;28;20038;-56
2022/03/22 08:08:15;;;;;;;50.33;26.30;;;;;;;10.37;89.23;103158.03;4992843;28;20623;-55
2022/03/22 08:10:43;;;;;;;48.83;26.15;;;;;;;10.48;87.01;103157.31;4992041;28;20139;-56
2022/03/22 08:13:08;;;;;;;48.28;25.92;;;;;;;10.63;87.27;103156.28;4997892;28;20720;-55
2022/03/22 08:15:34;;;;;;;49.60;25.65;;;;;;;10.74;85.41;103153.75;5002469;28;20045;-56
2022/03/22 08:17:59;;;;;;;52.72;26.83;;;;;;;10.91;87.03;103159.72;5007090;28;20826;-55
2022/03/22 08:20:27;;;;;;;53.72;26.02;;;;;;;11.02;85.53;103159.84;5011339;28;20014;-55
2022/03/22 08:23:04;;;;;;;50.08;26.48;;;;;;;11.16;83.73;103153.53;5007635;28;20057;-56
2022/03/22 08:25:38;;;;;;;52.55;26.20;;;;;;;11.28;82.38;103159.81;4998037;28;20156;-55
2022/03/22 08:28:06;;;;;;;50.88;25.77;;;;;;;11.41;82.23;103167.84;5012862;28;20113;-55
2022/03/22 08:30:32;;;;;;;48.20;26.30;;;;;;;11.54;81.55;103157.94;5010857;28;20626;-55
2022/03/22 08:32:59;;;;;;;51.92;26.65;;;;;;;11.66;80.97;103164.22;5009788;28;20139;-56
2022/03/22 08:35:25;;;;;;;47.83;27.75;;;;;;;11.85;82.46;103166.44;5003895;28;20081;-55
2022/03/22 08:37:51;;;;;;;56.88;28.15;;;;;;;12.00;80.37;103161.78;5002285;28;20141;-57
2022/03/22 08:40:16;;;;;;;46.30;26.98;;;;;;;12.14;80.20;103161.66;5010408;28;20518;-56
2022/03/22 08:42:43;;;;;;;52.00;27.80;;;;;;;12.29;79.10;103160.50;5012599;28;20025;-55
2022/03/22 08:45:16;;;;;;;53.15;27.38;;;;;;;12.47;79.08;103162.75;5010983;28;20104;-56
2022/03/22 08:47:45;;;;;;;60.28;28.00;;;;;;;12.61;76.73;103159.88;5004556;28;20318;-56
2022/03/22 08:50:12;;;;;;;56.50;26.77;;;;;;;12.81;76.72;103166.41;5010473;28;20057;-56
2022/03/22 08:52:38;;;;;;;53.70;26.58;;;;;;;12.97;76.54;103160.69;5006427;28;20037;-56
2022/03/22 08:55:05;;;;;;;50.05;26.85;;;;;;;13.14;76.14;103169.25;4999089;28;20285;-56
2022/03/22 08:57:31;;;;;;;54.97;27.52;;;;;;;13.32;75.91;103159.75;5013187;28;20491;-55
2022/03/22 08:59:57;;;;;;;50.00;27.08;;;;;;;13.46;74.77;103166.72;5015411;28;20102;-56
2022/03/22 09:02:22;;;;;;;52.33;26.95;;;;;;;13.60;74.40;103157.53;5016642;28;20120;-56
2022/03/22 09:07:31;;;;;;;48.72;26.48;;;;;;;13.89;71.55;103170.44;5003951;28;20036;-56
2022/03/22 09:09:57;;;;;;;53.50;26.42;;;;;;;14.03;70.15;103163.91;5008634;28;20022;-56
2022/03/22 09:12:22;;;;;;;48.95;27.23;;;;;;;14.15;68.05;103162.88;5007003;28;20029;-56
2022/03/22 09:14:47;;;;;;;58.97;27.55;;;;;;;14.17;65.80;103169.84;4996384;28;20659;-56
2022/03/22 09:17:13;;;;;;;51.78;26.85;;;;;;;14.24;66.57;103167.50;5004621;28;20543;-55
2022/03/22 09:19:39;;;;;;;50.72;26.50;;;;;;;14.28;66.56;103154.66;5007108;28;20088;-56
2022/03/22 09:22:08;;;;;;;59.17;26.52;;;;;;;14.48;65.31;103164.59;5013516;28;20030;-55
2022/03/22 09:24:35;;;;;;;51.70;27.50;;;;;;;14.59;64.88;103165.53;5010739;28;20126;-56
2022/03/22 09:27:01;;;;;;;50.30;27.02;;;;;;;14.82;65.97;103163.56;5010284;28;20029;-55
2022/03/22 09:29:26;;;;;;;58.25;30.10;;;;;;;14.98;65.39;103160.41;5012741;28;20059;-55
2022/03/22 09:31:52;;;;;;;73.60;32.35;;;;;;;15.08;63.51;103155.91;5012625;28;20408;-55
2022/03/22 09:34:18;;;;;;;64.68;34.45;;;;;;;15.19;64.00;103163.03;5012220;28;20029;-56
2022/03/22 09:36:43;;;;;;;63.85;32.30;;;;;;;15.33;63.12;103157.31;5012853;28;20061;-56
2022/03/22 09:39:08;;;;;;;69.15;34.70;;;;;;;15.34;61.90;103156.31;5012996;28;20056;-56
2022/03/22 09:41:37;;;;;;;67.78;33.47;;;;;;;15.39;62.39;103155.91;5011931;28;20033;-56
2022/03/22 09:44:03;;;;;;;61.42;31.95;;;;;;;15.44;58.78;103156.34;5008793;28;20396;-56
2022/03/22 09:46:29;;;;;;;51.42;29.27;;;;;;;15.53;59.75;103154.66;5002159;28;20044;-56
2022/03/22 09:48:54;;;;;;;59.95;29.73;;;;;;;15.68;59.13;103147.91;5011612;28;20134;-56
2022/03/22 09:54:07;;;;;;;55.35;29.55;;;;;;;15.99;59.67;103156.78;5010885;28;20162;-56
2022/03/22 09:56:32;;;;;;;59.17;29.00;;;;;;;16.08;56.63;103156.94;5005823;28;20378;-57
2022/03/22 09:58:58;;;;;;;47.22;27.13;;;;;;;16.14;55.03;103154.53;5015328;28;20179;-55
2022/03/22 10:01:24;;;;;;;60.33;28.55;;;;;;;16.26;54.98;103155.25;5014868;28;20420;-56
2022/03/22 10:04:03;;;;;;;50.88;26.08;;;;;;;16.42;55.95;103155.50;5013951;28;20304;-63
2022/03/22 10:06:30;;;;;;;49.97;27.17;;;;;;;16.60;55.62;103157.50;5013721;28;20123;-56
2022/03/22 10:08:56;;;;;;;55.65;26.83;;;;;;;16.62;51.10;103150.09;5013812;28;20325;-56
2022/03/22 10:11:33;;;;;;;50.47;27.73;;;;;;;16.66;53.61;103143.41;5007641;28;20033;-56
2022/03/22 10:13:58;;;;;;;52.03;27.08;;;;;;;16.79;53.25;103141.25;5005603;28;20464;-56
2022/03/22 10:16:23;;;;;;;57.08;28.42;;;;;;;16.94;55.46;103146.25;4996949;28;20119;-56
2022/03/22 10:18:48;;;;;;;51.63;27.40;;;;;;;17.02;53.40;103137.38;4997258;28;20034;-55
2022/03/22 10:21:14;;;;;;;53.28;27.50;;;;;;;16.97;49.19;103135.13;5001103;28;20103;-56
2022/03/22 10:23:53;;;;;;;52.83;27.33;;;;;;;16.99;49.20;103130.44;5006336;28;20103;-56
2022/03/22 10:26:19;;;;;;;57.97;27.13;;;;;;;17.06;49.65;103133.41;4999073;28;20202;-56
2022/03/22 10:28:52;;;;;;;49.75;27.35;;;;;;;17.23;49.78;103134.47;4998537;28;20633;-56
2022/03/22 10:31:19;;;;;;;59.35;27.60;;;;;;;17.39;50.93;103133.81;5011024;28;20033;-56
2022/03/22 10:33:49;;;;;;;50.28;25.95;;;;;;;17.49;47.00;103135.44;5001581;28;20037;-56
2022/03/22 10:36:15;;;;;;;50.85;27.15;;;;;;;17.59;48.72;103124.59;4997363;28;20050;-56
2022/03/22 10:38:40;;;;;;;52.42;28.42;;;;;;;17.82;49.86;103135.84;4999877;28;20088;-56
2022/03/22 10:41:07;;;;;;;52.35;27.33;;;;;;;18.00;48.19;103132.31;5003280;28;20071;-56
2022/03/22 10:43:36;;;;;;;49.85;28.48;;;;;;;18.14;46.91;103131.75;5012980;28;20040;-56
2022/03/22 10:46:02;;;;;;;48.83;27.67;;;;;;;18.17;47.92;103133.31;4997023;28;20096;-56
2022/03/22 10:48:32;;;;;;;52.47;27.17;;;;;;;18.20;45.35;103133.84;5005907;28;20076;-57
2022/03/22 10:50:59;;;;;;;54.10;28.38;;;;;;;18.29;44.79;103134.75;4998611;28;20420;-56
2022/03/22 10:53:26;;;;;;;52.90;28.55;;;;;;;18.40;47.67;103128.28;5007388;28;20274;-55
2022/03/22 10:55:52;;;;;;;59.13;27.90;;;;;;;18.33;43.77;103125.34;4998881;28;20476;-55
2022/03/22 10:58:26;;;;;;;50.15;27.10;;;;;;;18.57;46.94;103130.09;4996154;28;20075;-55
2022/03/22 11:00:53;;;;;;;54.38;26.83;;;;;;;18.70;46.17;103123.41;5003288;28;20109;-56
2022/03/22 11:03:19;;;;;;;58.95;26.08;;;;;;;18.79;43.96;103131.41;4996370;28;20066;-56
2022/03/22 11:05:46;;;;;;;47.03;24.15;;;;;;;18.91;43.07;103123.91;5000884;28;20358;-57
2022/03/22 11:08:12;;;;;;;48.28;24.88;;;;;;;19.04;43.92;103123.44;5002010;28;20014;-56
2022/03/22 11:10:37;;;;;;;45.55;24.35;;;;;;;19.17;42.87;103123.84;4997829;28;20033;-56
2022/03/22 11:13:03;;;;;;;44.72;24.63;;;;;;;19.22;43.09;103114.41;4996913;28;20345;-55
2022/03/22 11:15:38;;;;;;;45.63;23.73;;;;;;;19.40;42.83;103117.88;5003562;28;20025;-56
2022/03/22 11:18:06;;;;;;;48.25;25.08;;;;;;;19.42;40.99;103113.13;5007060;28;20035;-55
2022/03/22 11:20:32;;;;;;;50.13;25.70;;;;;;;19.48;39.20;103120.56;5010974;28;20056;-56
2022/03/22 11:22:57;;;;;;;49.88;25.52;;;;;;;19.56;41.94;103109.75;5011275;28;20492;-55
2022/03/22 11:25:34;;;;;;;43.58;23.90;;;;;;;19.72;39.95;103113.50;5011021;28;20032;-56
2022/03/22 11:28:12;;;;;;;47.63;25.38;;;;;;;19.66;37.96;103109.63;5012017;28;20037;-56
2022/03/22 11:30:39;;;;;;;49.55;24.83;;;;;;;19.70;40.99;103108.25;5012229;28;20225;-56
2022/03/22 11:35:59;;;;;;;50.78;23.90;;;;;;;19.91;37.38;103113.25;5012126;28;20053;-56
2022/03/22 11:38:40;;;;;;;45.45;22.65;;;;;;;19.94;40.83;103112.94;4993381;28;20814;-56